createdAt,value
2022-10-22T00:04:42.621Z,5.7
2022-10-22T00:09:42.650Z,5.7
2022-10-22T00:14:42.653Z,5.7
2022-10-22T00:25:29.259Z,5.7
2022-10-22T00:29:47.361Z,5.9
2022-10-22T00:35:17.780Z,5.9
2022-10-22T00:39:43.202Z,6.6
2022-10-22T00:44:42.794Z,6.6
2022-10-22T00:49:43.012Z,6.7
2022-10-22T00:54:42.761Z,6.8
2022-10-22T00:59:42.692Z,7.5
2022-10-22T01:04:42.651Z,7.6
2022-10-22T01:09:42.642Z,7.8
2022-10-22T01:14:42.755Z,7.9
2022-10-22T01:19:44.150Z,7.9
2022-10-22T01:24:42.584Z,7.9
2022-10-22T01:29:42.677Z,7.9
2022-10-22T01:34:42.644Z,7.9
2022-10-22T01:39:42.673Z,7.9
2022-10-22T01:44:42.702Z,7.9
2022-10-22T01:49:42.838Z,7.8
2022-10-22T01:54:42.700Z,7.4
2022-10-22T01:59:42.674Z,7.3
2022-10-22T02:04:42.631Z,7.3
2022-10-22T02:09:42.618Z,6.7
2022-10-22T02:14:42.647Z,6.7
2022-10-22T02:19:44.449Z,6.7
2022-10-22T02:24:42.631Z,6.4
2022-10-22T02:29:42.628Z,6.4
2022-10-22T02:34:42.649Z,6.2
2022-10-22T02:39:42.655Z,5.5
2022-10-22T02:44:42.666Z,5.3
2022-10-22T02:49:42.667Z,5.2
2022-10-22T02:54:42.687Z,4.9
2022-10-22T02:59:42.699Z,4.4
2022-10-22T03:04:42.785Z,4.2
2022-10-22T03:09:42.653Z,4.2
2022-10-22T03:14:42.711Z,4.2
2022-10-22T03:19:42.643Z,4.2
2022-10-22T03:24:42.745Z,4.2
2022-10-22T03:29:42.677Z,4.2
2022-10-22T03:34:42.722Z,4.2
2022-10-22T03:39:42.675Z,4.2
2022-10-22T03:44:42.716Z,4.2
2022-10-22T03:49:42.692Z,4.2
2022-10-22T03:54:42.762Z,4.2
2022-10-22T03:59:42.674Z,4.2
2022-10-22T04:04:42.701Z,4.3
2022-10-22T04:09:42.653Z,4.3
2022-10-22T04:14:42.714Z,4.2
2022-10-22T04:19:42.658Z,4.2
2022-10-22T04:24:42.725Z,4
2022-10-22T04:29:42.681Z,4
2022-10-22T04:34:42.728Z,3.8
2022-10-22T04:39:42.676Z,3.8
2022-10-22T04:44:42.661Z,3.7
2022-10-22T04:49:42.651Z,3.7
2022-10-22T04:54:42.664Z,3.8
2022-10-22T04:59:42.667Z,3.8
2022-10-22T05:04:42.697Z,3.8
2022-10-22T05:09:42.695Z,3.9
2022-10-22T05:14:45.741Z,4.1
2022-10-22T05:19:42.711Z,4.2
2022-10-22T05:24:42.667Z,4.2
2022-10-22T05:29:42.666Z,4.2
2022-10-22T05:34:42.768Z,4.2
2022-10-22T05:39:42.689Z,4.1
2022-10-22T05:44:42.679Z,4.2
2022-10-22T05:49:42.662Z,4.2
2022-10-22T05:54:42.691Z,4.2
2022-10-22T05:59:42.768Z,4.2
2022-10-22T06:04:42.683Z,4.3
2022-10-22T06:09:42.704Z,4.4
2022-10-22T06:14:42.748Z,4.4
2022-10-22T06:19:42.699Z,4.4
2022-10-22T06:24:45.838Z,4.4
2022-10-22T06:29:42.768Z,4.3
2022-10-22T06:34:42.697Z,4.3
2022-10-22T06:39:42.750Z,3.8
2022-10-22T06:44:42.733Z,3.4
2022-10-22T06:49:42.706Z,3.4
2022-10-22T06:54:42.754Z,3.4
2022-10-22T06:59:46.062Z,3.4
2022-10-22T07:04:42.755Z,4.9
2022-10-22T07:09:42.710Z,4.9
2022-10-22T07:14:42.713Z,4.9
2022-10-22T07:19:42.703Z,5.5
2022-10-22T07:24:42.831Z,5.4
2022-10-22T07:29:42.774Z,4.9
2022-10-22T07:34:45.728Z,4.3
2022-10-22T07:39:42.713Z,4
2022-10-22T07:44:42.729Z,4
2022-10-22T07:49:42.726Z,4.1
2022-10-22T07:54:42.713Z,4
2022-10-22T07:59:42.781Z,3.7
2022-10-22T08:04:42.741Z,3.7
2022-10-22T08:09:42.759Z,3.3
2022-10-22T08:14:42.735Z,1.7
2022-10-22T08:19:42.748Z,1.7
2022-10-22T08:24:42.854Z,1.7
2022-10-22T08:29:42.906Z,1.7
2022-10-22T08:34:42.805Z,1.7
2022-10-22T08:39:42.827Z,2.1
2022-10-22T08:44:42.798Z,2.1
2022-10-22T08:49:43.897Z,2.1
2022-10-22T08:54:42.829Z,2.1
2022-10-22T08:59:42.955Z,2.1
2022-10-22T09:04:42.850Z,2
2022-10-22T09:09:42.798Z,2
2022-10-22T09:14:42.774Z,1.6
2022-10-22T09:19:42.807Z,1.6
2022-10-22T09:24:42.842Z,1.6
2022-10-22T09:29:42.819Z,1.5
2022-10-22T09:34:42.697Z,1
2022-10-22T09:39:42.699Z,1
2022-10-22T09:44:48.773Z,1
2022-10-22T09:49:42.735Z,1
2022-10-22T09:54:42.750Z,0.9
2022-10-22T09:59:42.875Z,1
2022-10-22T10:04:42.831Z,1
2022-10-22T10:09:42.831Z,0.9
2022-10-22T10:14:42.805Z,0.9
2022-10-22T10:19:42.741Z,1.1
2022-10-22T10:24:43.732Z,1.1
2022-10-22T10:29:42.732Z,1.3
2022-10-22T10:34:42.837Z,1.3
2022-10-22T10:39:42.733Z,1.3
2022-10-22T10:44:42.769Z,1.3
2022-10-22T10:49:42.748Z,1.3
2022-10-22T10:54:47.103Z,1.3
2022-10-22T10:59:42.771Z,1.3
2022-10-22T11:04:42.717Z,0.8
2022-10-22T11:09:42.743Z,0.8
2022-10-22T11:14:42.788Z,0.8
2022-10-22T11:19:51.807Z,0.8
2022-10-22T11:24:42.865Z,0.8
2022-10-22T11:29:42.802Z,0.7
2022-10-22T11:34:42.756Z,0.7
2022-10-22T11:39:42.798Z,0.7
2022-10-22T11:44:42.965Z,0.7
2022-10-22T11:49:42.771Z,0.7
2022-10-22T11:54:43.342Z,0.7
2022-10-22T11:59:42.726Z,0.7
2022-10-22T12:04:42.804Z,0.7
2022-10-22T12:09:42.805Z,0.7
2022-10-22T12:14:42.756Z,0.7
2022-10-22T12:19:42.752Z,0.7
2022-10-22T12:24:42.813Z,0.8
2022-10-22T12:29:42.750Z,0.7
2022-10-22T12:34:42.819Z,0.7
2022-10-22T12:39:42.901Z,0.6
2022-10-22T12:44:42.880Z,0.6
2022-10-22T12:49:42.767Z,0.6
2022-10-22T12:54:42.886Z,0.6
2022-10-22T12:59:49.669Z,0.6
2022-10-22T13:04:42.772Z,0.6
2022-10-22T13:09:42.793Z,0.6
2022-10-22T13:14:42.875Z,0.6
2022-10-22T13:19:42.766Z,0.6
2022-10-22T13:24:43.003Z,0.6
2022-10-22T13:29:42.822Z,0.6
2022-10-22T13:34:42.900Z,0.6
2022-10-22T13:39:42.847Z,0.6
2022-10-22T13:44:42.838Z,0.7
2022-10-22T13:49:42.764Z,0.7
2022-10-22T13:54:42.784Z,0.7
2022-10-22T13:59:42.851Z,0.7
2022-10-22T14:04:42.921Z,0.7
2022-10-22T14:09:42.809Z,0.7
2022-10-22T14:14:42.811Z,0.7
2022-10-22T14:19:42.752Z,0.6
2022-10-22T14:24:42.836Z,0.6
2022-10-22T14:29:42.887Z,0.6
2022-10-22T14:34:42.795Z,0.6
2022-10-22T14:39:42.814Z,0.6
2022-10-22T14:44:43.834Z,0.6
2022-10-22T14:49:42.828Z,0.6
2022-10-22T14:54:42.799Z,0.7
2022-10-22T14:59:42.808Z,0.7
2022-10-22T15:04:42.810Z,0.7
2022-10-22T15:09:42.860Z,0.7
2022-10-22T15:14:42.899Z,0.7
2022-10-22T15:19:42.832Z,0.8
2022-10-22T15:24:42.864Z,0.8
2022-10-22T15:29:42.783Z,1.1
2022-10-22T15:34:42.816Z,1.1
2022-10-22T15:39:42.808Z,1.1
2022-10-22T15:44:42.829Z,1.1
2022-10-22T15:49:42.775Z,0.9
2022-10-22T15:54:42.798Z,0.7
2022-10-22T15:59:42.873Z,0.7
2022-10-22T16:04:42.814Z,0.6
2022-10-22T16:09:42.795Z,0.6
2022-10-22T16:14:42.795Z,0.7
2022-10-22T16:19:42.830Z,0.7
2022-10-22T16:24:42.830Z,0.8
2022-10-22T16:29:42.843Z,0.9
2022-10-22T16:34:42.840Z,1.1
2022-10-22T16:39:42.808Z,1.6
2022-10-22T16:44:42.877Z,2.4
2022-10-22T16:49:42.876Z,3.5
2022-10-22T16:54:42.822Z,7.4
2022-10-22T16:59:42.853Z,7.4
2022-10-22T17:04:42.888Z,7.4
2022-10-22T17:09:42.853Z,8.4
2022-10-22T17:14:42.917Z,8.6
2022-10-22T17:19:42.849Z,8.8
2022-10-22T17:24:42.831Z,10.3
2022-10-22T17:29:42.900Z,11
2022-10-22T17:34:42.877Z,14.1
2022-10-22T17:39:42.849Z,14.9
2022-10-22T17:44:42.834Z,17.3
2022-10-22T17:49:42.890Z,39.6
2022-10-22T17:54:42.822Z,39.6
2022-10-22T17:59:42.867Z,39.6
2022-10-22T18:04:42.848Z,39.6
2022-10-22T18:09:42.895Z,11.2
2022-10-22T18:14:42.806Z,9.6
2022-10-22T18:19:42.831Z,7.4
2022-10-22T18:24:42.866Z,5.6
2022-10-22T18:29:42.825Z,5.6
2022-10-22T18:34:42.891Z,5.6
2022-10-22T18:39:42.838Z,5.6
2022-10-22T18:44:42.863Z,6.8
2022-10-22T18:49:42.890Z,6.8
2022-10-22T18:54:42.835Z,7.1
2022-10-22T18:59:42.943Z,8.6
2022-10-22T19:04:42.841Z,7.1
2022-10-22T19:09:42.875Z,6.8
2022-10-22T19:14:42.923Z,6.8
2022-10-22T19:19:42.863Z,7.1
2022-10-22T19:24:42.997Z,8.2
2022-10-22T19:29:42.936Z,8.8
2022-10-22T19:34:42.894Z,8.8
2022-10-22T19:39:42.833Z,75.7
2022-10-22T19:44:42.833Z,81
2022-10-22T19:49:42.850Z,81
2022-10-22T19:54:42.868Z,81
2022-10-22T19:59:42.850Z,77.3
2022-10-22T20:04:45.645Z,77.3
2022-10-22T20:09:42.849Z,4.7
2022-10-22T20:14:42.955Z,4.3
2022-10-22T20:19:42.920Z,4.3
2022-10-22T20:24:42.938Z,4.3
2022-10-22T20:29:42.868Z,4.3
2022-10-22T20:34:42.860Z,4.6
2022-10-22T20:39:42.859Z,5.6
2022-10-22T20:44:42.885Z,5.6
2022-10-22T20:49:42.870Z,5.7
2022-10-22T20:54:42.889Z,5.8
2022-10-22T20:59:42.818Z,6
2022-10-22T21:04:46.911Z,6
2022-10-22T21:09:42.900Z,6.9
2022-10-22T21:14:42.887Z,10.4
2022-10-22T21:19:42.908Z,11.7
2022-10-22T21:24:42.902Z,13.7
2022-10-22T21:29:42.933Z,59.5
2022-10-22T21:34:42.864Z,59.5
2022-10-22T21:39:43.881Z,59.5
2022-10-22T21:44:42.888Z,59.5
2022-10-22T21:49:42.887Z,5.7
2022-10-22T21:54:42.887Z,5.3
2022-10-22T21:59:42.921Z,4.9
2022-10-22T22:04:42.882Z,3.7
2022-10-22T22:09:42.889Z,3.7
2022-10-22T22:14:42.993Z,3.7
2022-10-22T22:19:42.950Z,3.7
2022-10-22T22:24:42.885Z,3.7
2022-10-22T22:29:42.992Z,4.6
2022-10-22T22:34:42.894Z,4.6
2022-10-22T22:39:42.924Z,5.5
2022-10-22T22:44:42.963Z,6.3
2022-10-22T22:49:42.967Z,6.3
2022-10-22T22:54:42.900Z,6.3
2022-10-22T22:59:42.908Z,7.5
2022-10-22T23:04:42.882Z,8.3
2022-10-22T23:09:42.865Z,8.3
2022-10-22T23:14:42.928Z,8.3
2022-10-22T23:19:42.919Z,8.3
2022-10-22T23:24:42.941Z,8.3
2022-10-22T23:29:42.959Z,8.3
2022-10-22T23:34:42.879Z,8.5
2022-10-22T23:39:42.928Z,8.6
2022-10-22T23:44:42.999Z,8.8
2022-10-22T23:49:42.886Z,8.8
2022-10-22T23:54:42.924Z,8.8
2022-10-22T23:59:42.909Z,8.9
